Řízení letového provozu České republiky
OPMET data - Ceska Republika Aktualizace: 23.08.2017 08:04:04  UTC
SIGMET / AIRMET - NIL
Warning / Vystraha
VYSTRAHA C. 2 PRO LKAA PLATNOST 230800/231000 RYCHLOST VYSKOVEHO PROUDENI NA VETSINE UZEMI E POLOVINY LKAA BUDE PRESAHOVAT HODNOTU 80KT MEZI HLADINAMI FL310/FL390 ZE SMERU NW=
 
METAR / SPECI
METAR LKCV 230700Z VRB02KT CAVOK 13/09 Q1020 NOSIG=
METAR LKKB 230700Z 22003KT 140V290 CAVOK 13/09 Q1021 NOSIG =
METAR LKKU 230800Z VRB01KT 9999 FEW034 16/08 Q1020 RMK REG QNH 1017=
METAR LKKV 230800Z VRB03KT 9999 FEW030 14/07 Q1020 RMK REG QNH 1017=
METAR LKLN 230700Z AUTO VRB02KT CAVOK 11/08 Q1021=
METAR LKMT 230800Z 22006KT 190V250 9999 FEW017 14/10 Q1020 NOSIG RMK REG QNH 1017=
METAR LKNA 230700Z 32005KT CAVOK 12/07 Q1020 NOSIG=
METAR LKPD 230700Z 25003KT 220V290 CAVOK 13/09 Q1020 NOSIG =
METAR LKPR 230800Z 26003KT 180V330 9999 FEW035 15/07 Q1020 NOSIG RMK REG QNH 1017=
METAR LKTB 230800Z 35007KT 9999 FEW033 16/08 Q1020 NOSIG RMK REG QNH 1017=
METAR LKVO 230800Z VRB02KT 9999 FEW028 17/09 Q1021=
TAF
TAF LKCV 230500Z 2306/2406 VRB02KT CAVOK      TEMPO 2311/2315 05006KT SCT040=
TAF LKKB 230500Z 2306/2406 21004KT CAVOK      BECMG 2309/2311 06006KT SCT045      BECMG 2313/2315 CAVOK      BECMG 2317/2319 VRB01KT      BECMG 2403/2405 5000 BR=
TAF LKKU NIL
TAF LKKV 230500Z 2306/2412 VRB02KT CAVOK      TEMPO 2310/2315 34003KT=
TAF LKLN NIL
TAF LKMT 230500Z 2306/2412 21003KT CAVOK      TEMPO 2308/2315 9999 SCT045      BECMG 2408/2410 23010KT=
TAF LKNA 230500Z 2306/2406 32006KT CAVOK      TEMPO 2310/2314 9999 SCT040      BECMG 2317/2319 36006KT      BECMG 2323/2401 VRB02KT=
TAF LKPD 230500Z 2306/2406 VRB02KT CAVOK      TEMPO 2308/2311 SCT040      TEMPO 2312/2318 30008KT=
TAF LKPR 230500Z 2306/2412 21003KT CAVOK      BECMG 2310/2312 07005KT      BECMG 2318/2320 14003KT      BECMG 2409/2411 31005KT=
TAF LKTB 230500Z 2306/2412 32003KT CAVOK      BECMG 2316/2318 VRB02KT      BECMG 2408/2410 20005KT=
TAF LKVO NIL